PWSweather.com
Personal Weather Stations
Station Observations

ThassosGR

Lat: 40.743206, Lon: 24.577205

Elevation: 150

Station Type:

http://www.realestate-thassos.com/weather-thassos/

Latest ConditionsUpdated 6:22:48 AM GMT+02:02 Friday, Jul 21, 2017
Currently Today's Max Today's Min Today's Average
Temperature 71.2°F21.8°C 73.9°F23.3°C 70.2°F21.2°C 72.1°F22.3°C
Dew Point 58.9°F14.9°C 59.2°F15.1°C 57.4°F14.1°C 58.4°F14.7°C
Winds 0.7 mph SE1.1 kmh SE 3.1 mph SSE5.0 kmh SSE - 1.9 mph 3.1 kmh
Wind Gusts 3.8 mph6.1 kmh 4.5 mph7.2 kmh - -
Humidity 65% 65% 59% 62%
Pressure 30.15 in1021.0 mb 30.15 in1021.0 mb 30.09 in1019.0 mb -
Hour Temp Dew Point Humidity Winds Wind Gusts Pressure Precip Precip Rate Daily Precip Total
06:22 AM 71.2°F21.8°C 58.9°F14.9°C 65% 0.7 mph SE1.1 kmh SE 3.8 mph6.1 kmh 30.15 in1021.0 mb 0.00 in0.0 mm 0.00 in0.0 mm 0.00 in0.0 mm
06:08 AM 71.1°F21.7°C 58.7°F14.8°C 65% 2.2 mph SE3.5 kmh SE 4.5 mph7.2 kmh 30.15 in1021.0 mb 0.00 in0.0 mm 0.00 in0.0 mm 0.00 in0.0 mm
05:54 AM 70.5°F21.4°C 58.2°F14.6°C 65% 1.6 mph SE2.6 kmh SE 4.5 mph7.2 kmh 30.15 in1021.0 mb 0.00 in0.0 mm 0.00 in0.0 mm 0.00 in0.0 mm
05:40 AM 70.2°F21.2°C 57.9°F14.4°C 65% 1.6 mph SE2.6 kmh SE 4.5 mph7.2 kmh 30.14 in1020.7 mb 0.00 in0.0 mm 0.00 in0.0 mm 0.00 in0.0 mm
05:26 AM 70.2°F21.2°C 57.9°F14.4°C 65% 1.6 mph SE2.6 kmh SE 3.1 mph5.0 kmh 30.14 in1020.7 mb 0.00 in0.0 mm 0.00 in0.0 mm 0.00 in0.0 mm
05:12 AM 70.2°F21.2°C 57.4°F14.1°C 64% 1.6 mph SE2.6 kmh SE 3.8 mph6.1 kmh 30.14 in1020.7 mb 0.00 in0.0 mm 0.00 in0.0 mm 0.00 in0.0 mm
04:58 AM 70.5°F21.4°C 57.8°F14.3°C 64% 1.6 mph SE2.6 kmh SE 3.8 mph6.1 kmh 30.14 in1020.7 mb 0.00 in0.0 mm 0.00 in0.0 mm 0.00 in0.0 mm
04:44 AM 70.5°F21.4°C 57.8°F14.3°C 64% 1.6 mph SE2.6 kmh SE 3.8 mph6.1 kmh 30.14 in1020.7 mb 0.00 in0.0 mm 0.00 in0.0 mm 0.00 in0.0 mm
04:30 AM 71.2°F21.8°C 58.0°F14.4°C 63% 1.6 mph SE2.6 kmh SE 3.8 mph6.1 kmh 30.14 in1020.7 mb 0.00 in0.0 mm 0.00 in0.0 mm 0.00 in0.0 mm
04:16 AM 71.4°F21.9°C 58.2°F14.6°C 63% 1.6 mph SE2.6 kmh SE 3.8 mph6.1 kmh 30.14 in1020.7 mb 0.00 in0.0 mm 0.00 in0.0 mm 0.00 in0.0 mm
04:02 AM 71.4°F21.9°C 58.6°F14.8°C 64% 1.6 mph SE2.6 kmh SE 3.8 mph6.1 kmh 30.13 in1020.3 mb 0.00 in0.0 mm 0.00 in0.0 mm 0.00 in0.0 mm
03:48 AM 71.4°F21.9°C 58.2°F14.6°C 63% 1.6 mph SE2.6 kmh SE 4.5 mph7.2 kmh 30.12 in1020.0 mb 0.00 in0.0 mm 0.00 in0.0 mm 0.00 in0.0 mm
03:34 AM 72.0°F22.2°C 58.3°F14.6°C 62% 2.2 mph SE3.5 kmh SE 3.8 mph6.1 kmh 30.11 in1019.6 mb 0.00 in0.0 mm 0.00 in0.0 mm 0.00 in0.0 mm
03:20 AM 72.5°F22.5°C 58.3°F14.6°C 61% 3.1 mph SE5.0 kmh SE 4.5 mph7.2 kmh 30.11 in1019.6 mb 0.00 in0.0 mm 0.00 in0.0 mm 0.00 in0.0 mm
03:06 AM 72.7°F22.6°C 58.5°F14.7°C 61% 1.6 mph SE2.6 kmh SE 4.5 mph7.2 kmh 30.11 in1019.6 mb 0.00 in0.0 mm 0.00 in0.0 mm 0.00 in0.0 mm
02:52 AM 72.9°F22.7°C 58.7°F14.8°C 61% 2.2 mph SE3.5 kmh SE 4.5 mph7.2 kmh 30.11 in1019.6 mb 0.00 in0.0 mm 0.00 in0.0 mm 0.00 in0.0 mm
02:38 AM 73.0°F22.8°C 58.8°F14.9°C 61% 1.6 mph SE2.6 kmh SE 4.5 mph7.2 kmh 30.11 in1019.6 mb 0.00 in0.0 mm 0.00 in0.0 mm 0.00 in0.0 mm
02:24 AM 73.2°F22.9°C 58.5°F14.7°C 60% 2.2 mph SE3.5 kmh SE 4.5 mph7.2 kmh 30.10 in1019.3 mb 0.00 in0.0 mm 0.00 in0.0 mm 0.00 in0.0 mm
02:10 AM 72.7°F22.6°C 58.5°F14.7°C 61% 2.2 mph SE3.5 kmh SE 4.5 mph7.2 kmh 30.11 in1019.6 mb 0.00 in0.0 mm 0.00 in0.0 mm 0.00 in0.0 mm
01:56 AM 72.7°F22.6°C 58.9°F14.9°C 62% 2.2 mph SE3.5 kmh SE 3.8 mph6.1 kmh 30.11 in1019.6 mb 0.00 in0.0 mm 0.00 in0.0 mm 0.00 in0.0 mm
01:42 AM 73.4°F23.0°C 58.2°F14.6°C 59% 2.2 mph SE3.5 kmh SE 3.8 mph6.1 kmh 30.11 in1019.6 mb 0.00 in0.0 mm 0.00 in0.0 mm 0.00 in0.0 mm
01:28 AM 73.4°F23.0°C 58.2°F14.6°C 59% 2.2 mph SSE3.5 kmh SSE 3.8 mph6.1 kmh 30.11 in1019.6 mb 0.00 in0.0 mm 0.00 in0.0 mm 0.00 in0.0 mm
01:14 AM 73.6°F23.1°C 58.4°F14.7°C 59% 1.6 mph SE2.6 kmh SE 4.5 mph7.2 kmh 30.10 in1019.3 mb 0.00 in0.0 mm 0.00 in0.0 mm 0.00 in0.0 mm
01:00 AM 73.4°F23.0°C 58.7°F14.8°C 60% 1.6 mph SE2.6 kmh SE 3.8 mph6.1 kmh 30.10 in1019.3 mb 0.00 in0.0 mm 0.00 in0.0 mm 0.00 in0.0 mm
12:46 AM 73.6°F23.1°C 58.4°F14.7°C 59% 1.6 mph SE2.6 kmh SE 3.8 mph6.1 kmh 30.10 in1019.3 mb 0.00 in0.0 mm 0.00 in0.0 mm 0.00 in0.0 mm
12:32 AM 73.6°F23.1°C 58.4°F14.7°C 59% 3.1 mph SE5.0 kmh SE 4.5 mph7.2 kmh 30.09 in1019.0 mb 0.00 in0.0 mm 0.00 in0.0 mm 0.00 in0.0 mm
12:18 AM 73.6°F23.1°C 58.9°F14.9°C 60% 3.1 mph SSE5.0 kmh SSE 3.8 mph6.1 kmh 30.09 in1019.0 mb 0.00 in0.0 mm 0.00 in0.0 mm 0.00 in0.0 mm
12:04 AM 73.9°F23.3°C 59.2°F15.1°C 60% 1.6 mph SE2.6 kmh SE 3.8 mph6.1 kmh 30.09 in1019.0 mb 0.00 in0.0 mm 0.00 in0.0 mm 0.00 in0.0 mm